Time;durP1;ratioP1;P1;durP2;ratioP2;P2;SDS_P1;SDS_P2;PMS_P1;PMS_P2;Temp;Humidity;BMP_temperature;BMP_pressure;BME280_temperature;BME280_humidity;BME280_pressure;Samples;Min_cycle;Max_cycle;Signal;HPM_P1;HPM_P2
2024/01/22 00:01:16;;;;;;;8.37;6.43;;;20.20;53.00;;;;;;5091545;28;20174;-70
2024/01/22 00:03:42;;;;;;;8.27;6.70;;;20.20;52.50;;;;;;5091607;28;20272;-70
2024/01/22 00:06:07;;;;;;;9.60;5.80;;;20.20;52.50;;;;;;5091420;28;20177;-70
2024/01/22 00:08:33;;;;;;;5.93;5.13;;;20.20;52.50;;;;;;5073045;28;20448;-69
2024/01/22 00:10:58;;;;;;;8.70;5.60;;;20.20;52.50;;;;;;5091306;28;20213;-69
2024/01/22 00:13:24;;;;;;;6.13;5.37;;;20.20;52.50;;;;;;5091352;28;20206;-69
2024/01/22 00:15:50;;;;;;;8.50;5.00;;;20.20;52.50;;;;;;5091601;28;20256;-70
2024/01/22 00:18:15;;;;;;;8.97;5.80;;;20.20;52.50;;;;;;5091293;28;20189;-69
2024/01/22 00:20:41;;;;;;;7.37;5.57;;;20.20;52.50;;;;;;5091579;28;20547;-69
2024/01/22 00:23:06;;;;;;;8.97;5.80;;;20.20;52.60;;;;;;5072957;28;20648;-69
2024/01/22 00:25:32;;;;;;;7.77;5.70;;;20.20;52.50;;;;;;5091696;28;20169;-69
2024/01/22 00:27:57;;;;;;;7.37;5.53;;;20.20;52.50;;;;;;5090935;28;20165;-69
2024/01/22 00:30:23;;;;;;;7.80;5.33;;;20.20;52.50;;;;;;5091006;28;20249;-69
2024/01/22 00:32:51;;;;;;;7.93;5.10;;;20.20;52.50;;;;;;5091001;28;20169;-70
2024/01/22 00:35:16;;;;;;;7.10;5.80;;;20.20;52.50;;;;;;5090770;28;20272;-69
2024/01/22 00:37:43;;;;;;;7.47;6.10;;;20.20;52.50;;;;;;5090884;28;20486;-69
2024/01/22 00:40:09;;;;;;;8.03;5.90;;;20.20;52.50;;;;;;5091037;28;20343;-69
2024/01/22 00:42:34;;;;;;;7.90;5.67;;;20.20;52.50;;;;;;5090852;28;20486;-70
2024/01/22 00:45:00;;;;;;;8.07;4.93;;;20.20;52.50;;;;;;5090539;28;20457;-70
2024/01/22 00:47:25;;;;;;;6.63;4.93;;;20.20;52.50;;;;;;5090873;28;20184;-69
2024/01/22 00:49:51;;;;;;;9.10;4.90;;;20.20;52.40;;;;;;5093543;28;20212;-70
2024/01/22 00:52:16;;;;;;;6.33;5.13;;;20.20;52.50;;;;;;5094965;28;20197;-69
2024/01/22 00:54:42;;;;;;;8.77;6.07;;;20.20;52.50;;;;;;5094878;28;20648;-70
2024/01/22 00:57:08;;;;;;;6.37;5.27;;;20.20;52.50;;;;;;5095060;28;20250;-69
2024/01/22 00:59:36;;;;;;;8.23;5.10;;;20.20;52.50;;;;;;5094307;28;20201;-69
2024/01/22 01:02:02;;;;;;;7.73;5.40;;;20.20;52.50;;;;;;5094869;28;20262;-69
2024/01/22 01:04:28;;;;;;;6.93;5.53;;;20.20;52.50;;;;;;5094628;28;20546;-69
2024/01/22 01:06:54;;;;;;;8.77;5.17;;;20.20;52.50;;;;;;5094501;28;20506;-69
2024/01/22 01:09:19;;;;;;;6.73;4.53;;;20.20;52.50;;;;;;5075966;28;20580;-69
2024/01/22 01:11:45;;;;;;;7.20;4.70;;;20.20;52.50;;;;;;5094386;28;20169;-69
2024/01/22 01:14:11;;;;;;;6.57;5.10;;;20.20;52.50;;;;;;5094618;28;20173;-70
2024/01/22 01:16:36;;;;;;;6.30;4.97;;;20.20;52.50;;;;;;5076107;28;20220;-70
2024/01/22 01:19:02;;;;;;;6.93;5.20;;;20.20;52.50;;;;;;5094661;28;20185;-69
2024/01/22 01:21:27;;;;;;;6.07;4.97;;;20.10;53.00;;;;;;5094492;28;20188;-70
2024/01/22 01:23:53;;;;;;;6.73;5.00;;;20.10;52.50;;;;;;5094385;28;20178;-70
2024/01/22 01:26:18;;;;;;;6.23;5.10;;;20.10;52.50;;;;;;5094304;28;20240;-69
2024/01/22 01:28:44;;;;;;;6.33;5.37;;;20.10;52.50;;;;;;5094203;28;20190;-69
2024/01/22 01:31:10;;;;;;;7.17;5.50;;;20.10;52.50;;;;;;5094437;28;20227;-69
2024/01/22 01:33:35;;;;;;;7.37;5.40;;;20.10;52.50;;;;;;5094097;28;20537;-69
2024/01/22 01:36:01;;;;;;;8.67;5.00;;;20.10;52.50;;;;;;5093991;28;20252;-68
2024/01/22 01:38:26;;;;;;;7.30;4.40;;;20.10;52.50;;;;;;5094086;28;20568;-69
2024/01/22 01:40:52;;;;;;;6.53;5.27;;;20.10;52.50;;;;;;5093879;28;20193;-69
2024/01/22 01:43:18;;;;;;;8.20;5.80;;;20.10;52.50;;;;;;5094249;28;20641;-69
2024/01/22 01:45:44;;;;;;;7.60;5.43;;;20.10;52.50;;;;;;5094048;28;20177;-70
2024/01/22 01:48:11;;;;;;;6.40;4.90;;;20.10;52.50;;;;;;5093834;28;20462;-69
2024/01/22 01:50:36;;;;;;;7.37;5.47;;;20.10;52.50;;;;;;5093831;28;20231;-69
2024/01/22 01:53:03;;;;;;;5.43;4.10;;;20.10;52.60;;;;;;5093768;28;20886;-69
2024/01/22 01:55:30;;;;;;;6.10;4.20;;;20.10;52.50;;;;;;5093989;28;20181;-69
2024/01/22 01:57:55;;;;;;;6.20;4.80;;;20.10;52.50;;;;;;5093612;28;20484;-70
2024/01/22 02:00:21;;;;;;;4.20;3.73;;;20.10;52.50;;;;;;5073828;28;20432;-70
2024/01/22 02:02:47;;;;;;;6.13;4.77;;;20.10;52.50;;;;;;5093581;28;20449;-69
2024/01/22 02:05:13;;;;;;;7.77;5.90;;;20.10;52.50;;;;;;5093452;28;20914;-69
2024/01/22 02:07:39;;;;;;;5.67;4.53;;;20.00;52.40;;;;;;5093563;28;20173;-70
2024/01/22 02:10:05;;;;;;;5.53;4.13;;;20.10;52.50;;;;;;5093197;28;20459;-69
2024/01/22 02:12:31;;;;;;;6.87;4.83;;;20.00;52.50;;;;;;5093638;28;20552;-69
2024/01/22 02:14:56;;;;;;;6.43;5.10;;;20.10;52.60;;;;;;5093431;28;20404;-69
2024/01/22 02:17:22;;;;;;;6.30;4.73;;;20.10;52.50;;;;;;5093095;28;20178;-69
2024/01/22 02:19:49;;;;;;;6.10;4.43;;;20.10;52.60;;;;;;5093146;28;20185;-70
2024/01/22 02:22:15;;;;;;;5.70;4.23;;;20.00;52.50;;;;;;5093315;28;20408;-69
2024/01/22 02:24:41;;;;;;;4.67;4.20;;;20.10;52.50;;;;;;5093393;28;20411;-69
2024/01/22 02:27:06;;;;;;;7.00;4.67;;;20.00;52.50;;;;;;5093203;28;20415;-70
2024/01/22 02:29:32;;;;;;;8.73;4.90;;;20.00;52.50;;;;;;5093122;28;20644;-69
2024/01/22 02:31:58;;;;;;;6.10;4.40;;;20.00;52.50;;;;;;5092947;28;20178;-69
2024/01/22 02:34:23;;;;;;;8.60;4.97;;;20.00;52.50;;;;;;5093103;28;20189;-70
2024/01/22 02:36:49;;;;;;;4.77;4.07;;;20.00;52.50;;;;;;5093109;28;20428;-69
2024/01/22 02:39:15;;;;;;;6.63;3.80;;;20.00;52.50;;;;;;5092882;28;20260;-70
2024/01/22 02:41:41;;;;;;;8.90;5.60;;;20.00;52.50;;;;;;5092899;28;20244;-69
2024/01/22 02:44:07;;;;;;;5.70;4.53;;;20.00;52.50;;;;;;5092925;28;20188;-70
2024/01/22 02:46:32;;;;;;;7.77;4.70;;;20.00;52.50;;;;;;5092601;28;20953;-70
2024/01/22 02:48:58;;;;;;;6.40;4.77;;;20.00;52.50;;;;;;5092577;28;21004;-69
2024/01/22 02:51:24;;;;;;;5.77;4.20;;;20.00;52.50;;;;;;5092589;28;20174;-69
2024/01/22 02:53:52;;;;;;;5.17;4.47;;;20.00;52.50;;;;;;5092781;28;20170;-69
2024/01/22 02:56:18;;;;;;;5.50;3.53;;;20.00;52.50;;;;;;5092511;28;20411;-69
2024/01/22 02:58:44;;;;;;;5.30;4.50;;;20.00;52.50;;;;;;5092371;28;20480;-68
2024/01/22 03:01:09;;;;;;;4.73;3.80;;;20.10;52.50;;;;;;5092442;28;20498;-70
2024/01/22 03:03:35;;;;;;;6.57;4.70;;;20.00;52.50;;;;;;5092220;28;20656;-69
2024/01/22 03:06:01;;;;;;;5.27;4.27;;;20.10;52.60;;;;;;5092599;28;20184;-69
2024/01/22 03:08:26;;;;;;;5.00;4.50;;;20.00;52.40;;;;;;5092020;28;20698;-70
2024/01/22 03:10:52;;;;;;;5.80;4.23;;;20.10;52.50;;;;;;5073963;28;20285;-69
2024/01/22 03:13:17;;;;;;;5.30;4.17;;;20.10;52.50;;;;;;5091898;28;20621;-69
2024/01/22 03:15:43;;;;;;;5.40;4.30;;;20.10;52.50;;;;;;5092171;28;20170;-69
2024/01/22 03:18:08;;;;;;;4.80;3.90;;;20.10;52.50;;;;;;5092023;28;20189;-69
2024/01/22 03:20:35;;;;;;;5.53;4.03;;;20.00;52.40;;;;;;5091958;28;20217;-69
2024/01/22 03:23:01;;;;;;;5.83;3.87;;;20.00;52.40;;;;;;5092203;28;20264;-68
2024/01/22 03:25:26;;;;;;;5.90;3.70;;;20.10;52.50;;;;;;5092082;28;20977;-71
2024/01/22 03:27:52;;;;;;;7.13;4.20;;;20.10;52.50;;;;;;5091854;28;20407;-69
2024/01/22 03:30:18;;;;;;;6.67;3.80;;;20.10;52.50;;;;;;5091711;28;20235;-69
2024/01/22 03:32:43;;;;;;;5.73;4.23;;;20.00;52.40;;;;;;5091795;28;20727;-70
2024/01/22 03:35:09;;;;;;;4.93;4.00;;;20.00;52.40;;;;;;5091780;28;20186;-70
2024/01/22 03:37:34;;;;;;;5.23;4.17;;;20.00;52.40;;;;;;5073544;28;20205;-70
2024/01/22 03:40:00;;;;;;;4.87;3.93;;;20.00;52.40;;;;;;5091691;28;20735;-69
2024/01/22 03:42:25;;;;;;;4.10;3.43;;;20.00;52.50;;;;;;5091568;28;20232;-69
2024/01/22 03:44:53;;;;;;;3.90;3.60;;;20.00;52.40;;;;;;5091840;28;20231;-69
2024/01/22 03:47:18;;;;;;;5.97;4.80;;;20.00;52.40;;;;;;5073699;28;20178;-69
2024/01/22 03:49:44;;;;;;;5.07;3.47;;;20.00;52.40;;;;;;5091422;28;20470;-69
2024/01/22 03:52:09;;;;;;;8.57;4.73;;;20.00;52.40;;;;;;5091150;28;20248;-69
2024/01/22 03:54:35;;;;;;;4.70;3.50;;;20.00;52.50;;;;;;5091318;28;20601;-69
2024/01/22 03:57:06;;;;;;;4.83;4.30;;;20.00;52.40;;;;;;5091667;28;20177;-69
2024/01/22 03:59:33;;;;;;;5.40;4.10;;;20.00;52.40;;;;;;5090838;28;20197;-70
2024/01/22 04:01:59;;;;;;;3.73;3.30;;;20.00;52.40;;;;;;5090787;28;20922;-70
2024/01/22 04:04:24;;;;;;;4.23;3.40;;;20.00;52.40;;;;;;5090731;28;20441;-69
2024/01/22 04:06:50;;;;;;;6.57;3.50;;;20.00;52.40;;;;;;5090856;28;20169;-69
2024/01/22 04:09:15;;;;;;;5.83;3.63;;;20.00;52.50;;;;;;5090594;28;20205;-69
2024/01/22 04:11:41;;;;;;;5.10;3.90;;;20.00;52.50;;;;;;5090597;28;20174;-70
2024/01/22 04:14:07;;;;;;;4.20;3.73;;;20.00;52.50;;;;;;5090661;28;20572;-69
2024/01/22 04:16:33;;;;;;;5.53;3.90;;;20.00;52.50;;;;;;5090514;28;20489;-70
2024/01/22 04:18:58;;;;;;;4.97;3.73;;;20.00;52.50;;;;;;5090810;28;20174;-69
2024/01/22 04:21:24;;;;;;;5.10;4.20;;;19.90;52.40;;;;;;5090433;28;20592;-70
2024/01/22 04:23:49;;;;;;;7.80;5.13;;;19.90;52.40;;;;;;5090202;28;20235;-69
2024/01/22 04:26:15;;;;;;;4.40;3.83;;;19.90;52.40;;;;;;5090564;28;20173;-70
2024/01/22 04:28:40;;;;;;;5.70;3.87;;;19.90;52.40;;;;;;5090542;28;20694;-69
2024/01/22 04:31:06;;;;;;;4.07;3.23;;;19.90;52.40;;;;;;5090513;28;20271;-69
2024/01/22 04:33:33;;;;;;;4.43;3.50;;;19.90;52.40;;;;;;5090518;28;20649;-69
2024/01/22 04:35:58;;;;;;;4.73;3.83;;;19.90;52.40;;;;;;5090548;28;20442;-70
2024/01/22 04:38:25;;;;;;;6.40;3.47;;;19.90;52.40;;;;;;5090542;28;20415;-69
2024/01/22 04:40:51;;;;;;;6.30;4.27;;;19.90;52.40;;;;;;5090687;28;20185;-69
2024/01/22 04:43:21;;;;;;;5.90;3.90;;;19.90;52.40;;;;;;5090547;28;20781;-69
2024/01/22 04:45:50;;;;;;;4.73;3.33;;;19.90;52.40;;;;;;5090421;28;20173;-69
2024/01/22 04:48:15;;;;;;;3.90;3.23;;;20.00;52.50;;;;;;5090288;28;20407;-69
2024/01/22 04:50:41;;;;;;;4.17;3.63;;;19.90;52.40;;;;;;5090349;28;20946;-69
2024/01/22 04:53:06;;;;;;;4.23;3.70;;;19.90;52.40;;;;;;5090414;28;20181;-70
2024/01/22 04:55:32;;;;;;;5.30;3.43;;;19.90;52.40;;;;;;5090402;28;20214;-69
2024/01/22 04:57:58;;;;;;;4.13;3.20;;;19.90;52.40;;;;;;5090294;28;20170;-69
2024/01/22 05:00:23;;;;;;;4.50;3.70;;;20.00;52.50;;;;;;5090209;28;20265;-69
2024/01/22 05:02:49;;;;;;;5.23;3.40;;;19.90;52.40;;;;;;5090257;28;20632;-69
2024/01/22 05:05:15;;;;;;;5.10;3.40;;;20.00;52.50;;;;;;5090371;28;20180;-69
2024/01/22 05:07:41;;;;;;;3.77;3.00;;;20.00;52.50;;;;;;5090203;28;20169;-70
2024/01/22 05:10:10;;;;;;;4.50;3.53;;;20.00;52.50;;;;;;5089924;28;20470;-68
2024/01/22 05:12:37;;;;;;;3.63;3.17;;;20.00;52.50;;;;;;5089968;28;20214;-69
2024/01/22 05:15:03;;;;;;;4.27;3.87;;;20.00;52.50;;;;;;5090143;28;20499;-69
2024/01/22 05:17:28;;;;;;;4.70;3.50;;;20.00;52.50;;;;;;5089968;28;20446;-69
2024/01/22 05:19:54;;;;;;;4.10;3.30;;;20.00;52.50;;;;;;5089957;28;20937;-70
2024/01/22 05:22:21;;;;;;;4.73;3.07;;;20.00;52.50;;;;;;5090159;28;20601;-70
2024/01/22 05:24:47;;;;;;;4.87;3.80;;;20.00;52.40;;;;;;5090159;28;20530;-70
2024/01/22 05:27:12;;;;;;;4.03;2.87;;;20.00;52.40;;;;;;5090003;28;21064;-69
2024/01/22 05:29:38;;;;;;;4.37;3.40;;;20.00;52.40;;;;;;5089801;28;20217;-69
2024/01/22 05:32:04;;;;;;;6.03;3.57;;;20.00;52.40;;;;;;5089722;28;20196;-69
2024/01/22 05:34:29;;;;;;;4.53;3.27;;;20.00;52.40;;;;;;5090413;28;20166;-69
2024/01/22 05:36:55;;;;;;;4.17;2.77;;;20.00;52.40;;;;;;5093994;28;20197;-69
2024/01/22 05:39:21;;;;;;;3.50;2.83;;;20.00;52.40;;;;;;5093709;28;20254;-70
2024/01/22 05:41:46;;;;;;;3.23;2.90;;;20.10;52.50;;;;;;5093766;28;20415;-69
2024/01/22 05:44:12;;;;;;;4.00;3.17;;;20.00;52.40;;;;;;5093555;28;20250;-70
2024/01/22 05:46:38;;;;;;;4.50;3.10;;;20.10;52.40;;;;;;5093562;28;20543;-70
2024/01/22 05:49:03;;;;;;;3.60;2.90;;;20.00;52.30;;;;;;5093307;28;20198;-70
2024/01/22 05:51:29;;;;;;;5.73;4.23;;;20.00;52.30;;;;;;5093801;28;20711;-69
2024/01/22 05:53:54;;;;;;;3.97;3.00;;;20.00;52.30;;;;;;5093471;28;20166;-69
2024/01/22 05:56:25;;;;;;;4.50;3.90;;;20.00;52.30;;;;;;5093147;28;20174;-70
2024/01/22 05:58:51;;;;;;;5.60;3.43;;;20.00;52.30;;;;;;5093398;28;20161;-69
2024/01/22 06:01:27;;;;;;;3.33;3.03;;;20.00;52.40;;;;;;5093458;28;20419;-70
2024/01/22 06:03:53;;;;;;;3.60;3.20;;;20.00;52.90;;;;;;5093164;28;20398;-68
2024/01/22 06:06:19;;;;;;;4.97;3.87;;;20.00;52.30;;;;;;5093490;28;20415;-69
2024/01/22 06:08:46;;;;;;;4.60;3.17;;;20.00;52.30;;;;;;5093023;28;20447;-68
2024/01/22 06:11:13;;;;;;;3.33;3.03;;;20.00;52.30;;;;;;5093410;28;20890;-70
2024/01/22 06:13:39;;;;;;;3.83;3.13;;;20.00;52.30;;;;;;5093015;28;20518;-69
2024/01/22 06:16:11;;;;;;;3.87;2.97;;;20.00;52.40;;;;;;5092842;28;20418;-69
2024/01/22 06:18:38;;;;;;;3.70;3.10;;;20.10;52.40;;;;;;5093442;28;20404;-69
2024/01/22 06:21:04;;;;;;;3.80;2.80;;;20.00;52.40;;;;;;5092756;28;20432;-69
2024/01/22 06:23:33;;;;;;;4.23;3.30;;;20.10;52.50;;;;;;5093054;28;20503;-69
2024/01/22 06:26:00;;;;;;;3.70;2.70;;;20.10;53.00;;;;;;5093256;28;20941;-69
2024/01/22 06:28:26;;;;;;;3.70;2.77;;;20.10;52.50;;;;;;5093025;28;20553;-70
2024/01/22 06:30:53;;;;;;;4.30;3.20;;;20.10;52.50;;;;;;5092845;28;20470;-69
2024/01/22 06:33:19;;;;;;;5.83;3.10;;;20.10;52.50;;;;;;5092716;28;20404;-69
2024/01/22 06:35:45;;;;;;;3.93;2.70;;;20.10;52.40;;;;;;5092984;28;20400;-69
2024/01/22 06:38:11;;;;;;;3.30;2.50;;;20.10;52.50;;;;;;5093175;28;20481;-68
2024/01/22 06:40:37;;;;;;;3.40;2.80;;;20.20;52.50;;;;;;5092567;28;20424;-68
2024/01/22 06:43:03;;;;;;;4.43;2.97;;;20.20;52.50;;;;;;5074557;28;20956;-70
2024/01/22 06:45:29;;;;;;;4.27;3.13;;;20.20;52.50;;;;;;5092976;28;20219;-69
2024/01/22 06:47:54;;;;;;;3.07;2.77;;;20.20;52.40;;;;;;5073644;28;20439;-69
2024/01/22 06:50:20;;;;;;;3.40;2.70;;;20.30;52.50;;;;;;5092220;28;20283;-69
2024/01/22 06:52:46;;;;;;;3.77;3.30;;;20.30;52.50;;;;;;5092592;28;20197;-68
2024/01/22 06:55:12;;;;;;;3.17;2.80;;;20.30;52.50;;;;;;5093043;28;20201;-70
2024/01/22 06:57:38;;;;;;;4.33;3.43;;;20.30;52.50;;;;;;5092770;28;20412;-70
2024/01/22 07:00:07;;;;;;;5.63;2.93;;;20.40;52.50;;;;;;5092565;28;20485;-68
2024/01/22 07:02:38;;;;;;;3.73;3.07;;;20.30;52.40;;;;;;5092731;28;20415;-70
2024/01/22 07:05:05;;;;;;;5.17;3.00;;;20.40;52.50;;;;;;5092505;28;20749;-70
2024/01/22 07:07:31;;;;;;;3.43;2.60;;;20.40;52.50;;;;;;5092415;28;20407;-70
2024/01/22 07:09:57;;;;;;;2.97;2.60;;;20.40;52.40;;;;;;5092200;28;20471;-70
2024/01/22 07:12:23;;;;;;;6.50;2.93;;;20.40;52.40;;;;;;5092160;28;20515;-69
2024/01/22 07:14:49;;;;;;;4.00;2.77;;;20.40;52.40;;;;;;5092242;28;20400;-67
2024/01/22 07:17:16;;;;;;;2.50;2.20;;;20.50;52.40;;;;;;5092085;28;20181;-70
2024/01/22 07:19:42;;;;;;;4.10;3.23;;;20.50;52.40;;;;;;5092299;28;20198;-70
2024/01/22 07:22:08;;;;;;;4.77;3.03;;;20.50;52.40;;;;;;5092305;28;20407;-70
2024/01/22 07:24:34;;;;;;;3.27;2.83;;;20.50;52.40;;;;;;5092070;28;20469;-70
2024/01/22 07:26:59;;;;;;;3.93;2.80;;;20.50;52.40;;;;;;5092478;28;20249;-71
2024/01/22 07:29:25;;;;;;;3.87;3.00;;;20.50;52.30;;;;;;5091810;28;20213;-68
2024/01/22 07:31:50;;;;;;;3.53;2.57;;;20.50;52.30;;;;;;5091975;28;20545;-69
2024/01/22 07:34:16;;;;;;;3.07;2.70;;;20.50;52.30;;;;;;5091975;28;20675;-69
2024/01/22 07:36:42;;;;;;;3.87;2.63;;;20.50;52.30;;;;;;5091965;28;20161;-70
2024/01/22 07:39:08;;;;;;;3.87;2.40;;;20.50;52.30;;;;;;5091925;28;20197;-69
2024/01/22 07:41:38;;;;;;;3.67;2.60;;;20.50;52.30;;;;;;5091545;28;20204;-70
2024/01/22 07:44:04;;;;;;;2.83;2.60;;;20.50;52.30;;;;;;5073759;28;20204;-69
2024/01/22 07:46:30;;;;;;;4.40;2.90;;;20.50;52.30;;;;;;5091917;28;20476;-70
2024/01/22 07:48:56;;;;;;;3.37;2.77;;;20.50;52.30;;;;;;5091508;28;20448;-69
2024/01/22 07:51:22;;;;;;;3.07;2.33;;;20.50;52.30;;;;;;5091557;28;20558;-69
2024/01/22 07:53:47;;;;;;;3.90;2.80;;;20.50;52.30;;;;;;5091540;28;20426;-70
2024/01/22 07:56:13;;;;;;;4.30;3.07;;;20.50;52.30;;;;;;5091510;28;20176;-70
2024/01/22 07:58:39;;;;;;;2.60;2.33;;;20.50;52.30;;;;;;5090624;28;20530;-69
2024/01/22 08:01:06;;;;;;;3.13;2.17;;;20.50;52.20;;;;;;5091442;28;20203;-69
2024/01/22 08:03:31;;;;;;;3.67;2.43;;;20.50;52.20;;;;;;5091206;28;20408;-70
2024/01/22 08:05:58;;;;;;;2.80;2.20;;;20.50;52.30;;;;;;5091418;28;20411;-70
2024/01/22 08:08:28;;;;;;;2.33;2.13;;;20.50;52.20;;;;;;5091049;28;20247;-69
2024/01/22 08:10:54;;;;;;;3.00;2.53;;;20.50;52.20;;;;;;5091104;28;20427;-70
2024/01/22 08:13:20;;;;;;;3.20;2.90;;;20.60;52.30;;;;;;5091379;28;20411;-70
2024/01/22 08:15:47;;;;;;;3.30;2.43;;;20.50;52.20;;;;;;5091310;28;20439;-70
2024/01/22 08:18:13;;;;;;;3.93;3.00;;;20.50;52.20;;;;;;5091152;28;20938;-70
2024/01/22 08:20:39;;;;;;;2.50;2.30;;;20.60;52.30;;;;;;5091035;28;20457;-69
2024/01/22 08:23:05;;;;;;;2.40;2.10;;;20.60;52.30;;;;;;5090897;28;20461;-70
2024/01/22 08:25:31;;;;;;;3.17;2.40;;;20.60;52.40;;;;;;5091316;28;20439;-69
2024/01/22 08:27:58;;;;;;;2.23;2.03;;;20.60;52.30;;;;;;5091414;28;20178;-70
2024/01/22 08:30:24;;;;;;;5.73;2.60;;;20.60;52.30;;;;;;5090963;28;20598;-69
2024/01/22 08:32:51;;;;;;;3.67;2.53;;;20.60;52.30;;;;;;5091390;28;20407;-70
2024/01/22 08:35:18;;;;;;;2.63;2.23;;;20.60;52.30;;;;;;5091196;28;20547;-70
2024/01/22 08:37:50;;;;;;;2.90;2.20;;;20.60;52.30;;;;;;5091045;28;20436;-70
2024/01/22 08:40:21;;;;;;;2.53;1.90;;;20.60;52.30;;;;;;5091007;28;20427;-68
2024/01/22 08:42:52;;;;;;;4.20;2.20;;;20.60;52.30;;;;;;5091327;28;20518;-69
2024/01/22 08:45:18;;;;;;;3.20;2.40;;;20.60;52.30;;;;;;5091077;28;20392;-70
2024/01/22 08:47:46;;;;;;;4.20;2.57;;;20.60;52.40;;;;;;5090972;28;20414;-70
2024/01/22 08:50:17;;;;;;;3.13;2.50;;;20.60;52.40;;;;;;5090704;28;20473;-69
2024/01/22 08:52:44;;;;;;;2.73;2.30;;;20.60;52.40;;;;;;5073278;28;20474;-69
2024/01/22 08:55:09;;;;;;;2.50;1.97;;;20.60;52.40;;;;;;5091083;28;20427;-70
2024/01/22 08:57:36;;;;;;;2.57;2.37;;;20.60;52.40;;;;;;5091301;28;20467;-69
2024/01/22 09:00:06;;;;;;;3.03;2.30;;;20.60;52.40;;;;;;5091201;28;20441;-69
2024/01/22 09:02:31;;;;;;;2.83;2.27;;;20.60;52.40;;;;;;5091136;28;20408;-70
2024/01/22 09:04:57;;;;;;;2.30;2.10;;;20.60;52.40;;;;;;5090994;28;20773;-70
2024/01/22 09:07:23;;;;;;;3.20;2.27;;;20.50;52.30;;;;;;5072784;28;20256;-69
2024/01/22 09:09:50;;;;;;;3.10;2.30;;;20.50;52.30;;;;;;5091624;28;20202;-69
2024/01/22 09:12:18;;;;;;;3.10;2.10;;;20.60;52.40;;;;;;5094755;28;20195;-70
2024/01/22 09:14:44;;;;;;;3.97;2.43;;;20.50;52.30;;;;;;5095203;28;20837;-68
2024/01/22 09:17:09;;;;;;;2.60;2.03;;;20.50;52.30;;;;;;5094726;28;20493;-71
2024/01/22 09:19:35;;;;;;;2.73;2.53;;;20.50;52.30;;;;;;5094697;28;20198;-69
2024/01/22 09:22:00;;;;;;;3.03;2.20;;;20.50;52.30;;;;;;5094940;28;20252;-70
2024/01/22 09:24:26;;;;;;;2.03;1.83;;;20.50;52.30;;;;;;5094849;28;20188;-69
2024/01/22 09:26:51;;;;;;;2.57;2.10;;;20.50;52.30;;;;;;5094704;28;20223;-70
2024/01/22 09:29:17;;;;;;;2.83;2.30;;;20.50;52.30;;;;;;5094374;28;20205;-69
2024/01/22 09:31:42;;;;;;;3.03;2.20;;;20.50;52.30;;;;;;5094628;28;20272;-69
2024/01/22 09:34:09;;;;;;;3.77;2.13;;;20.50;52.30;;;;;;5094726;28;20691;-70
2024/01/22 09:36:35;;;;;;;3.80;2.77;;;20.50;52.30;;;;;;5094168;28;20170;-69
2024/01/22 09:39:00;;;;;;;3.00;2.10;;;20.50;52.40;;;;;;5094334;28;20460;-69
2024/01/22 09:41:27;;;;;;;2.23;2.03;;;20.50;52.40;;;;;;5094517;28;20185;-68
2024/01/22 09:43:54;;;;;;;2.60;2.33;;;20.50;52.40;;;;;;5094668;28;20177;-69
2024/01/22 09:46:21;;;;;;;2.83;2.53;;;20.50;52.90;;;;;;5094350;28;20427;-69
2024/01/22 09:48:50;;;;;;;2.43;2.10;;;20.50;52.40;;;;;;5093998;28;20455;-69
2024/01/22 09:51:17;;;;;;;2.50;2.20;;;20.50;52.40;;;;;;5094299;28;20400;-69
2024/01/22 09:53:46;;;;;;;2.97;1.67;;;20.50;52.40;;;;;;5094035;28;20487;-68
2024/01/22 09:56:16;;;;;;;2.10;1.83;;;20.50;52.40;;;;;;5094174;28;20419;-70
2024/01/22 09:58:45;;;;;;;3.00;2.13;;;20.50;52.40;;;;;;5093654;28;21002;-70
2024/01/22 10:01:11;;;;;;;2.67;2.37;;;20.50;52.40;;;;;;5094440;28;20488;-68
2024/01/22 10:03:37;;;;;;;3.33;2.43;;;20.50;52.40;;;;;;5094139;28;20510;-69
2024/01/22 10:06:04;;;;;;;2.23;1.90;;;20.50;52.40;;;;;;5093753;28;20856;-68
2024/01/22 10:08:29;;;;;;;3.07;2.10;;;20.50;52.40;;;;;;5094191;28;20855;-70
2024/01/22 10:10:55;;;;;;;3.90;2.40;;;20.50;52.40;;;;;;5093641;28;20423;-69
2024/01/22 10:13:21;;;;;;;3.73;2.60;;;20.50;52.50;;;;;;5075682;28;20936;-69
2024/01/22 10:15:47;;;;;;;2.53;1.93;;;20.50;52.50;;;;;;5093606;28;20180;-69
2024/01/22 10:18:17;;;;;;;2.27;1.93;;;20.50;52.50;;;;;;5093626;28;20192;-70
2024/01/22 10:20:44;;;;;;;2.60;2.00;;;20.50;52.50;;;;;;5093292;28;20431;-70
2024/01/22 10:23:13;;;;;;;2.23;1.90;;;20.50;52.50;;;;;;5093358;28;20471;-70
2024/01/22 10:25:39;;;;;;;2.60;2.03;;;20.50;52.50;;;;;;5093441;28;20404;-70
2024/01/22 10:28:08;;;;;;;3.37;2.50;;;20.50;52.50;;;;;;5093706;28;20771;-69
2024/01/22 10:30:36;;;;;;;2.47;2.03;;;20.50;52.50;;;;;;5093880;28;20185;-69
2024/01/22 10:33:19;;;;;;;2.50;2.20;;;20.50;52.60;;;;;;5093611;28;20406;-69
2024/01/22 10:35:46;;;;;;;3.80;2.60;;;20.50;52.50;;;;;;5093828;28;20376;-70
2024/01/22 10:38:16;;;;;;;2.43;2.23;;;20.50;52.60;;;;;;5093577;28;20809;-70
2024/01/22 10:40:44;;;;;;;2.90;2.10;;;20.50;52.60;;;;;;5093399;28;20434;-69
2024/01/22 10:43:27;;;;;;;2.50;2.00;;;20.50;52.60;;;;;;5093250;28;20402;-69
2024/01/22 10:45:54;;;;;;;2.20;1.67;;;20.50;52.60;;;;;;5093564;28;20434;-70
2024/01/22 10:48:23;;;;;;;3.20;2.23;;;20.50;52.70;;;;;;5074947;28;20412;-69
2024/01/22 10:50:51;;;;;;;2.30;2.10;;;20.50;52.60;;;;;;5093484;28;20939;-70
2024/01/22 10:53:16;;;;;;;2.43;1.87;;;20.50;53.20;;;;;;5093368;28;20460;-69
2024/01/22 10:56:02;;;;;;;3.00;1.60;;;20.50;52.60;;;;;;5093544;28;20415;-70
2024/01/22 10:58:42;;;;;;;2.40;1.87;;;20.40;52.60;;;;;;5092706;28;20158;-69
2024/01/22 11:01:16;;;;;;;2.70;1.90;;;20.40;52.60;;;;;;5093003;28;20462;-70
2024/01/22 11:03:48;;;;;;;2.10;1.30;;;20.40;52.60;;;;;;5093123;28;20487;-70
2024/01/22 11:06:22;;;;;;;3.23;1.77;;;20.40;52.60;;;;;;5092675;28;20384;-70
2024/01/22 11:08:55;;;;;;;1.93;1.73;;;20.40;52.60;;;;;;5092716;28;21302;-69
2024/01/22 11:11:24;;;;;;;2.47;1.90;;;20.40;52.60;;;;;;5092789;28;20416;-70
2024/01/22 11:13:52;;;;;;;2.30;2.10;;;20.40;52.60;;;;;;5093151;28;20410;-69
2024/01/22 11:16:21;;;;;;;3.00;2.23;;;20.40;52.60;;;;;;5092552;28;20431;-70
2024/01/22 11:18:58;;;;;;;3.23;2.30;;;20.40;52.60;;;;;;5074180;28;20415;-69
2024/01/22 11:21:24;;;;;;;2.73;1.90;;;20.40;52.60;;;;;;5092925;28;20478;-69
2024/01/22 11:24:08;;;;;;;2.70;1.73;;;20.40;52.60;;;;;;5092534;28;20446;-70
2024/01/22 11:26:34;;;;;;;1.97;1.60;;;20.40;52.60;;;;;;5092689;28;20399;-68
2024/01/22 11:29:10;;;;;;;2.73;1.80;;;20.40;52.60;;;;;;5092274;28;20451;-68
2024/01/22 11:31:37;;;;;;;2.27;1.80;;;20.40;52.60;;;;;;5092686;28;20162;-68
2024/01/22 11:34:05;;;;;;;2.00;1.70;;;20.30;52.50;;;;;;5092124;28;20514;-68
2024/01/22 11:36:51;;;;;;;2.23;1.97;;;20.40;52.60;;;;;;5092242;28;20403;-69
2024/01/22 11:39:35;;;;;;;2.70;2.17;;;20.40;52.60;;;;;;5091794;28;20423;-68
2024/01/22 11:42:16;;;;;;;2.03;1.80;;;20.40;52.60;;;;;;5092237;28;20411;-68
2024/01/22 11:44:42;;;;;;;2.90;2.47;;;20.30;52.50;;;;;;5092302;28;20392;-69
2024/01/22 11:47:10;;;;;;;2.07;1.77;;;20.30;52.50;;;;;;5091989;28;20422;-69
2024/01/22 11:49:36;;;;;;;2.60;1.70;;;20.30;52.50;;;;;;5073332;28;20475;-68
2024/01/22 11:52:25;;;;;;;2.57;1.77;;;20.30;52.50;;;;;;5091871;28;20422;-69
2024/01/22 11:54:59;;;;;;;2.20;2.00;;;20.30;52.50;;;;;;5078721;28;21157;-69
2024/01/22 11:57:27;;;;;;;2.10;1.90;;;20.40;52.60;;;;;;5091743;28;20412;-69
2024/01/22 12:00:05;;;;;;;3.20;2.70;;;20.30;52.50;;;;;;5091359;28;20444;-69
2024/01/22 12:02:34;;;;;;;2.50;2.03;;;20.30;52.50;;;;;;5091907;28;20942;-67
2024/01/22 12:05:12;;;;;;;1.97;1.57;;;20.40;52.60;;;;;;5091702;28;20408;-68
2024/01/22 12:07:39;;;;;;;2.73;2.03;;;20.40;52.60;;;;;;5091811;28;20400;-69
2024/01/22 12:10:26;;;;;;;2.30;1.87;;;20.30;52.50;;;;;;5091462;28;20463;-68
2024/01/22 12:12:52;;;;;;;2.23;1.87;;;20.40;52.60;;;;;;5090905;28;20420;-70
2024/01/22 12:15:19;;;;;;;2.67;1.80;;;20.30;52.50;;;;;;5091213;28;20407;-68
2024/01/22 12:17:44;;;;;;;2.93;1.83;;;20.40;52.60;;;;;;5091579;28;20190;-69
2024/01/22 12:20:10;;;;;;;2.50;2.00;;;20.40;52.60;;;;;;5091354;28;20436;-69
2024/01/22 12:22:36;;;;;;;1.70;1.60;;;20.40;52.50;;;;;;5091403;28;20648;-69
2024/01/22 12:25:07;;;;;;;2.27;1.83;;;20.40;52.50;;;;;;5091090;28;20404;-69
2024/01/22 12:27:33;;;;;;;2.67;1.70;;;20.50;52.50;;;;;;5091556;28;20181;-68
2024/01/22 12:30:00;;;;;;;2.27;1.83;;;20.50;52.50;;;;;;5091186;28;20466;-68
2024/01/22 12:32:26;;;;;;;2.50;1.77;;;20.50;52.50;;;;;;5091283;28;20796;-68
2024/01/22 12:34:56;;;;;;;1.93;1.73;;;20.50;53.10;;;;;;5091577;28;20408;-68
2024/01/22 12:37:23;;;;;;;2.80;1.70;;;20.50;52.50;;;;;;5091183;28;20195;-68
2024/01/22 12:39:49;;;;;;;2.30;1.80;;;20.50;52.50;;;;;;5091184;28;20436;-69
2024/01/22 12:42:18;;;;;;;2.10;1.60;;;20.50;52.50;;;;;;5090854;28;20446;-68
2024/01/22 12:45:04;;;;;;;2.07;1.87;;;20.50;52.50;;;;;;5090439;28;20994;-69
2024/01/22 12:47:30;;;;;;;2.10;1.43;;;20.50;52.50;;;;;;5090725;28;20431;-68